createdAt,value
2023-03-26T00:01:39.880Z,19.52
2023-03-26T00:04:08.754Z,17.30
2023-03-26T00:06:40.141Z,20.70
2023-03-26T00:09:12.424Z,19.17
2023-03-26T00:11:40.166Z,17.25
2023-03-26T00:14:13.219Z,16.80
2023-03-26T00:16:42.420Z,15.48
2023-03-26T00:19:12.196Z,13.60
2023-03-26T00:21:40.995Z,12.37
2023-03-26T00:24:14.194Z,12.15
2023-03-26T00:26:42.348Z,12.07
2023-03-26T00:29:12.128Z,11.38
2023-03-26T00:31:40.548Z,12.18
2023-03-26T00:34:10.056Z,7.62
2023-03-26T00:36:37.672Z,7.22
2023-03-26T00:39:05.801Z,5.80
2023-03-26T00:41:35.950Z,4.28
2023-03-26T00:44:03.804Z,4.58
2023-03-26T00:46:31.744Z,3.70
2023-03-26T00:49:02.832Z,4.55
2023-03-26T00:51:32.869Z,3.20
2023-03-26T00:54:01.105Z,3.37
2023-03-26T00:56:28.902Z,4.70
2023-03-26T00:58:57.226Z,3.33
2023-03-26T01:01:28.449Z,4.65
2023-03-26T01:06:33.824Z,5.05
2023-03-26T01:09:20.788Z,5.65
2023-03-26T01:11:49.651Z,5.97
2023-03-26T01:14:23.250Z,5.80
2023-03-26T01:16:55.314Z,5.35
2023-03-26T01:19:46.804Z,5.70
2023-03-26T01:22:18.945Z,5.37
2023-03-26T01:24:48.982Z,5.17
2023-03-26T01:27:50.336Z,3.95
2023-03-26T01:30:41.742Z,3.72
2023-03-26T01:33:38.774Z,3.50
2023-03-26T01:36:21.102Z,2.98
2023-03-26T01:39:15.917Z,4.08
2023-03-26T01:42:04.942Z,4.33
2023-03-26T01:44:40.981Z,4.08
2023-03-26T01:47:12.106Z,3.67
2023-03-26T01:49:40.015Z,3.87
2023-03-26T01:52:19.096Z,3.52
2023-03-26T01:54:47.166Z,3.70
2023-03-26T01:57:29.593Z,3.80
2023-03-26T02:00:25.700Z,3.35
2023-03-26T02:05:45.901Z,3.00
2023-03-26T02:08:35.832Z,3.10
2023-03-26T02:11:11.496Z,2.77
2023-03-26T02:13:42.836Z,3.35
2023-03-26T02:16:15.788Z,3.27
2023-03-26T02:18:45.708Z,3.75
2023-03-26T02:21:19.728Z,3.77
2023-03-26T02:24:03.739Z,3.50
2023-03-26T02:26:37.200Z,3.37
2023-03-26T02:29:09.457Z,3.83
2023-03-26T02:31:37.726Z,3.40
2023-03-26T02:34:05.515Z,3.20
2023-03-26T02:36:35.443Z,3.30
2023-03-26T02:39:04.593Z,3.70
2023-03-26T02:41:36.533Z,3.67
2023-03-26T02:44:06.451Z,4.00
2023-03-26T02:46:38.734Z,5.22
2023-03-26T02:49:14.478Z,5.37
2023-03-26T02:51:43.007Z,6.10
2023-03-26T02:54:12.465Z,5.10
2023-03-26T02:56:42.890Z,4.53
2023-03-26T02:59:15.371Z,4.55
2023-03-26T03:01:43.898Z,4.28
2023-03-26T03:04:13.265Z,4.17
2023-03-26T03:06:41.571Z,4.67
2023-03-26T03:09:09.311Z,4.83
2023-03-26T03:11:38.694Z,4.80
2023-03-26T03:14:07.019Z,5.12
2023-03-26T03:16:34.980Z,5.33
2023-03-26T03:21:40.452Z,4.87
2023-03-26T03:24:09.090Z,5.20
2023-03-26T03:26:40.852Z,7.17
2023-03-26T03:29:16.203Z,5.80
2023-03-26T03:31:44.563Z,6.45
2023-03-26T03:34:14.074Z,5.62
2023-03-26T03:36:45.465Z,6.03
2023-03-26T03:39:15.688Z,5.80
2023-03-26T03:41:44.505Z,5.30
2023-03-26T03:44:14.019Z,4.75
2023-03-26T03:46:41.709Z,4.78
2023-03-26T03:49:09.416Z,4.60
2023-03-26T03:51:38.455Z,4.90
2023-03-26T03:54:08.128Z,4.75
2023-03-26T03:56:46.751Z,4.92
2023-03-26T03:59:17.082Z,5.03
2023-03-26T04:01:47.951Z,5.50
2023-03-26T04:04:17.926Z,5.05
2023-03-26T04:06:53.439Z,7.30
2023-03-26T04:09:21.745Z,5.42
2023-03-26T04:11:50.526Z,6.08
2023-03-26T04:14:29.298Z,5.50
2023-03-26T04:17:01.682Z,5.33
2023-03-26T04:19:30.724Z,5.78
2023-03-26T04:22:00.113Z,6.55
2023-03-26T04:24:30.184Z,7.25
2023-03-26T04:27:16.575Z,8.28
2023-03-26T04:29:49.286Z,7.92
2023-03-26T04:32:30.227Z,8.50
2023-03-26T04:34:59.741Z,8.58
2023-03-26T04:40:20.030Z,9.88
2023-03-26T04:43:05.954Z,8.63
2023-03-26T04:45:52.671Z,9.50
2023-03-26T04:48:21.567Z,10.93
2023-03-26T04:50:49.855Z,9.75
2023-03-26T04:53:23.773Z,9.68
2023-03-26T04:56:25.405Z,10.23
2023-03-26T04:59:01.948Z,11.12
2023-03-26T05:01:31.654Z,13.48
2023-03-26T05:03:59.540Z,14.23
2023-03-26T05:06:28.212Z,11.25
2023-03-26T05:08:56.739Z,11.00
2023-03-26T05:11:32.473Z,10.90
2023-03-26T05:14:00.506Z,9.43
2023-03-26T05:16:29.579Z,8.78
2023-03-26T05:18:59.214Z,9.33
2023-03-26T05:21:28.905Z,13.65
2023-03-26T05:23:56.612Z,11.90
2023-03-26T05:26:25.602Z,16.65
2023-03-26T05:28:53.228Z,19.57
2023-03-26T05:31:23.175Z,26.82
2023-03-26T05:33:54.416Z,18.42
2023-03-26T05:36:24.537Z,11.48
2023-03-26T05:39:05.895Z,9.75
2023-03-26T05:41:47.348Z,9.68
2023-03-26T05:44:15.136Z,8.43
2023-03-26T05:46:43.014Z,7.00
2023-03-26T05:49:11.771Z,6.10
2023-03-26T05:51:39.693Z,7.20
2023-03-26T05:54:15.088Z,7.70
2023-03-26T05:56:47.915Z,6.08
2023-03-26T05:59:36.157Z,3.90
2023-03-26T06:02:23.343Z,3.65
2023-03-26T06:05:12.155Z,3.90
2023-03-26T06:07:54.072Z,3.67
2023-03-26T06:10:22.526Z,3.30
2023-03-26T06:12:50.365Z,4.75
2023-03-26T06:15:18.303Z,4.92
2023-03-26T06:17:50.721Z,2.25
2023-03-26T06:20:20.631Z,3.92
2023-03-26T06:22:50.335Z,3.02
2023-03-26T06:25:22.472Z,3.62
2023-03-26T06:27:55.076Z,2.42
2023-03-26T06:30:42.061Z,3.02
2023-03-26T06:33:29.727Z,2.65
2023-03-26T06:35:59.453Z,2.52
2023-03-26T06:38:27.461Z,3.58
2023-03-26T06:41:04.976Z,3.17
2023-03-26T06:43:40.179Z,3.27
2023-03-26T06:46:10.680Z,3.08
2023-03-26T06:48:59.068Z,3.05
2023-03-26T06:51:46.221Z,3.20
2023-03-26T06:54:18.904Z,2.47
2023-03-26T06:56:58.457Z,2.30
2023-03-26T06:59:44.395Z,2.92
2023-03-26T07:02:30.645Z,3.60
2023-03-26T07:05:17.450Z,3.20
2023-03-26T07:08:03.977Z,4.92
2023-03-26T07:10:50.260Z,3.98
2023-03-26T07:13:32.399Z,2.75
2023-03-26T07:16:01.981Z,2.62
2023-03-26T07:18:31.509Z,2.83
2023-03-26T07:21:00.520Z,2.87
2023-03-26T07:23:30.722Z,2.52
2023-03-26T07:26:14.770Z,3.55
2023-03-26T07:29:04.476Z,2.87
2023-03-26T07:31:51.210Z,2.80
2023-03-26T07:34:45.687Z,2.92
2023-03-26T07:37:36.123Z,2.50
2023-03-26T07:40:33.689Z,4.00
2023-03-26T07:43:08.772Z,2.52
2023-03-26T07:45:56.945Z,2.77
2023-03-26T07:48:43.146Z,3.17
2023-03-26T07:51:14.191Z,2.50
2023-03-26T07:53:50.505Z,1.95
2023-03-26T07:56:55.852Z,1.82
2023-03-26T08:00:00.403Z,2.27
2023-03-26T08:03:18.657Z,1.90
2023-03-26T08:06:30.033Z,2.20
2023-03-26T08:09:31.561Z,1.90
2023-03-26T08:12:36.839Z,2.40
2023-03-26T08:15:33.532Z,1.60
2023-03-26T08:18:35.178Z,1.60
2023-03-26T08:21:10.774Z,1.30
2023-03-26T08:24:15.983Z,1.65
2023-03-26T08:27:12.116Z,1.80
2023-03-26T08:30:02.601Z,1.82
2023-03-26T08:32:33.127Z,1.50
2023-03-26T08:35:00.726Z,1.90
2023-03-26T08:37:28.751Z,1.12
2023-03-26T08:39:57.041Z,1.30
2023-03-26T08:43:00.473Z,0.90
2023-03-26T08:45:50.612Z,1.40
2023-03-26T08:48:49.296Z,2.17
2023-03-26T08:51:51.263Z,1.00
2023-03-26T08:54:56.187Z,1.22
2023-03-26T08:58:16.768Z,1.40
2023-03-26T09:01:26.608Z,3.75
2023-03-26T09:04:46.269Z,4.62
2023-03-26T09:07:39.984Z,1.45
2023-03-26T09:10:28.458Z,0.85
2023-03-26T09:13:26.155Z,1.32
2023-03-26T09:16:26.837Z,1.52
2023-03-26T09:19:24.119Z,2.20
2023-03-26T09:22:16.079Z,2.10
2023-03-26T09:25:10.042Z,1.50
2023-03-26T09:28:12.330Z,1.80
2023-03-26T09:31:00.781Z,1.85
2023-03-26T09:33:53.348Z,1.57
2023-03-26T09:36:47.902Z,1.55
2023-03-26T09:39:52.653Z,2.50
2023-03-26T09:42:56.484Z,2.55
2023-03-26T09:45:38.031Z,1.90
2023-03-26T09:51:34.035Z,2.55
2023-03-26T09:54:51.178Z,2.67
2023-03-26T09:58:03.373Z,3.25
2023-03-26T10:00:48.690Z,3.10
2023-03-26T10:04:12.382Z,2.02
2023-03-26T10:06:48.360Z,1.90
2023-03-26T10:09:40.365Z,2.70
2023-03-26T10:12:22.557Z,1.22
2023-03-26T10:15:33.298Z,0.95
2023-03-26T10:18:28.108Z,1.37
2023-03-26T10:21:05.141Z,1.55
2023-03-26T10:24:13.797Z,2.52
2023-03-26T10:27:09.033Z,1.72
2023-03-26T10:29:52.954Z,0.88
2023-03-26T10:32:39.027Z,0.80
2023-03-26T10:35:29.446Z,1.70
2023-03-26T10:38:36.366Z,1.65
2023-03-26T10:41:17.211Z,1.20
2023-03-26T10:44:22.432Z,0.80
2023-03-26T10:47:04.108Z,1.30
2023-03-26T10:50:03.290Z,2.02
2023-03-26T10:52:57.912Z,3.00
2023-03-26T10:55:40.397Z,1.30
2023-03-26T10:58:16.507Z,2.72
2023-03-26T11:00:49.578Z,4.62
2023-03-26T11:03:54.306Z,3.42
2023-03-26T11:06:40.974Z,1.22
2023-03-26T11:09:23.889Z,1.40
2023-03-26T11:12:26.288Z,0.93
2023-03-26T11:15:27.923Z,1.20
2023-03-26T11:18:35.115Z,1.20
2023-03-26T11:21:36.113Z,1.20
2023-03-26T11:24:39.962Z,1.95
2023-03-26T11:27:26.552Z,0.90
2023-03-26T11:30:19.779Z,1.60
2023-03-26T11:32:55.323Z,1.65
2023-03-26T11:35:41.081Z,1.10
2023-03-26T11:38:14.003Z,1.00
2023-03-26T11:40:49.263Z,1.60
2023-03-26T11:43:24.535Z,1.05
2023-03-26T11:45:53.569Z,1.02
2023-03-26T11:48:29.952Z,1.42
2023-03-26T11:51:06.821Z,1.42
2023-03-26T11:53:39.617Z,1.12
2023-03-26T11:56:15.554Z,0.90
2023-03-26T11:59:16.917Z,2.12
2023-03-26T12:01:58.207Z,1.00
2023-03-26T12:04:40.614Z,1.70
2023-03-26T12:07:33.014Z,1.27
2023-03-26T12:10:18.179Z,1.40
2023-03-26T12:12:40.872Z,2.08
2023-03-26T12:15:19.110Z,7.47
2023-03-26T12:17:55.809Z,1.60
2023-03-26T12:20:33.003Z,3.20
2023-03-26T12:23:06.207Z,4.75
2023-03-26T12:25:38.712Z,1.60
2023-03-26T12:28:19.399Z,11.65
2023-03-26T12:31:03.465Z,58.55
2023-03-26T12:33:34.204Z,7.12
2023-03-26T12:36:24.197Z,13.68
2023-03-26T12:39:16.748Z,2.12
2023-03-26T12:43:19.841Z,2.58
2023-03-26T12:44:55.667Z,1.70
2023-03-26T12:47:59.993Z,2.65
2023-03-26T12:49:55.847Z,5.00
2023-03-26T12:53:02.110Z,4.42
2023-03-26T12:55:41.752Z,3.55
2023-03-26T12:58:20.890Z,3.05
2023-03-26T13:01:06.202Z,6.60
2023-03-26T13:03:50.575Z,2.20
2023-03-26T13:07:01.971Z,1.47
2023-03-26T13:09:47.406Z,3.12
2023-03-26T13:12:33.683Z,3.35
2023-03-26T13:15:32.597Z,7.67
2023-03-26T13:18:43.968Z,3.35
2023-03-26T13:21:19.906Z,1.25
2023-03-26T13:24:11.072Z,4.55
2023-03-26T13:26:55.898Z,1.00
2023-03-26T13:29:56.078Z,1.40
2023-03-26T13:32:38.198Z,1.17
2023-03-26T13:35:37.454Z,2.05
2023-03-26T13:38:25.495Z,1.20
2023-03-26T13:41:05.080Z,1.92
2023-03-26T13:43:44.513Z,1.98
2023-03-26T13:46:35.383Z,1.47
2023-03-26T13:49:13.154Z,1.05
2023-03-26T13:51:57.957Z,1.30
2023-03-26T13:54:33.888Z,1.25
2023-03-26T13:57:13.274Z,53.80
2023-03-26T14:00:01.536Z,23.27
2023-03-26T14:02:59.083Z,4.37
2023-03-26T14:05:41.301Z,5.33
2023-03-26T14:08:23.802Z,1.82
2023-03-26T14:11:18.272Z,8.33
2023-03-26T14:14:13.757Z,1.37
2023-03-26T14:16:49.252Z,1.02
2023-03-26T14:19:37.129Z,1.35
2023-03-26T14:22:33.261Z,1.90
2023-03-26T14:25:16.398Z,1.95
2023-03-26T14:28:07.804Z,2.75
2023-03-26T14:30:55.139Z,3.85
2023-03-26T14:34:04.359Z,1.80
2023-03-26T14:37:04.377Z,2.12
2023-03-26T14:40:09.865Z,1.90
2023-03-26T14:43:07.628Z,1.83
2023-03-26T14:45:43.505Z,1.65
2023-03-26T14:49:04.021Z,2.40
2023-03-26T14:52:15.491Z,2.67
2023-03-26T14:54:52.055Z,1.95
2023-03-26T14:57:25.349Z,2.15
2023-03-26T15:00:38.358Z,4.12
2023-03-26T15:03:28.326Z,3.60
2023-03-26T15:06:09.891Z,10.95
2023-03-26T15:09:02.658Z,5.47
2023-03-26T15:11:55.580Z,2.67
2023-03-26T15:14:53.352Z,2.90
2023-03-26T15:17:43.194Z,1.25
2023-03-26T15:20:43.256Z,3.55
2023-03-26T15:23:42.576Z,2.22
2023-03-26T15:26:46.494Z,1.95
2023-03-26T15:29:55.038Z,1.77
2023-03-26T15:33:16.173Z,1.98
2023-03-26T15:36:25.859Z,8.43
2023-03-26T15:39:18.997Z,2.50
2023-03-26T15:42:14.981Z,3.12
2023-03-26T15:47:51.899Z,3.22
2023-03-26T15:50:57.782Z,3.33
2023-03-26T15:53:53.728Z,5.80
2023-03-26T15:57:00.397Z,3.98
2023-03-26T15:59:42.668Z,2.20
2023-03-26T16:02:27.430Z,1.47
2023-03-26T16:05:33.829Z,2.10
2023-03-26T16:10:55.597Z,3.52
2023-03-26T16:13:38.130Z,3.40
2023-03-26T16:16:22.510Z,5.60
2023-03-26T16:19:20.685Z,5.47
2023-03-26T16:22:09.412Z,4.20
2023-03-26T16:24:45.963Z,4.60
2023-03-26T16:27:28.260Z,6.40
2023-03-26T16:30:08.366Z,8.65
2023-03-26T16:32:55.560Z,12.60
2023-03-26T16:35:48.359Z,12.78
2023-03-26T16:38:18.639Z,11.88
2023-03-26T16:41:06.879Z,10.00
2023-03-26T16:44:04.890Z,11.10
2023-03-26T16:47:10.024Z,9.53
2023-03-26T16:50:18.208Z,19.20
2023-03-26T16:53:12.975Z,26.65
2023-03-26T16:56:20.631Z,23.10
2023-03-26T16:58:57.782Z,19.75
2023-03-26T17:01:48.419Z,20.02
2023-03-26T17:04:25.200Z,18.92
2023-03-26T17:07:08.529Z,22.90
2023-03-26T17:09:53.861Z,24.65
2023-03-26T17:13:01.015Z,20.23
2023-03-26T17:15:49.389Z,12.30
2023-03-26T17:21:57.110Z,12.43
2023-03-26T17:28:17.569Z,18.77
2023-03-26T17:31:25.885Z,81.97
2023-03-26T17:33:54.009Z,74.07
2023-03-26T17:36:42.016Z,66.07
2023-03-26T17:39:49.022Z,50.10
2023-03-26T17:42:32.481Z,39.95
2023-03-26T17:45:21.588Z,35.58
2023-03-26T17:48:16.988Z,27.20
2023-03-26T17:50:55.501Z,22.60
2023-03-26T17:53:32.676Z,23.15
2023-03-26T17:56:05.140Z,30.25
2023-03-26T17:58:44.004Z,29.40
2023-03-26T18:01:29.470Z,24.70
2023-03-26T18:04:02.083Z,22.37
2023-03-26T18:06:47.395Z,25.43
2023-03-26T18:10:14.180Z,30.57
2023-03-26T18:13:09.988Z,31.48
2023-03-26T18:15:48.713Z,26.15
2023-03-26T18:18:27.957Z,17.50
2023-03-26T18:21:03.499Z,16.67
2023-03-26T18:23:43.408Z,17.90
2023-03-26T18:26:40.574Z,16.85
2023-03-26T18:29:19.109Z,17.20
2023-03-26T18:31:51.709Z,21.70
2023-03-26T18:34:23.813Z,80.72
2023-03-26T18:37:05.942Z,103.40
2023-03-26T18:39:33.744Z,71.53
2023-03-26T18:42:01.731Z,33.92
2023-03-26T18:44:32.448Z,27.95
2023-03-26T18:47:09.220Z,29.05
2023-03-26T18:49:37.391Z,28.10
2023-03-26T18:52:06.130Z,27.13
2023-03-26T18:54:38.058Z,27.77
2023-03-26T18:57:25.701Z,28.23
2023-03-26T19:00:00.479Z,31.60
2023-03-26T19:02:29.310Z,30.77
2023-03-26T19:04:57.617Z,28.02
2023-03-26T19:07:27.690Z,26.93
2023-03-26T19:10:00.867Z,26.33
2023-03-26T19:12:36.028Z,23.35
2023-03-26T19:15:08.611Z,23.73
2023-03-26T19:17:48.604Z,23.35
2023-03-26T19:20:24.106Z,21.48
2023-03-26T19:25:31.516Z,20.45
2023-03-26T19:28:02.610Z,21.62
2023-03-26T19:30:33.902Z,23.80
2023-03-26T19:33:17.763Z,20.77
2023-03-26T19:36:05.583Z,19.80
2023-03-26T19:38:53.062Z,20.43
2023-03-26T19:41:28.283Z,19.80
2023-03-26T19:46:34.154Z,17.05
2023-03-26T19:49:04.887Z,16.70
2023-03-26T19:51:38.509Z,15.63
2023-03-26T19:54:15.586Z,15.25
2023-03-26T19:56:44.065Z,18.42
2023-03-26T19:59:14.672Z,21.15
2023-03-26T20:01:42.952Z,30.20
2023-03-26T20:04:13.087Z,28.00
2023-03-26T20:06:44.147Z,28.73
2023-03-26T20:09:13.893Z,24.95
2023-03-26T20:11:42.050Z,24.43
2023-03-26T20:14:17.355Z,23.83
2023-03-26T20:16:47.118Z,21.55
2023-03-26T20:19:15.476Z,19.37
2023-03-26T20:21:44.457Z,18.70
2023-03-26T20:24:16.341Z,18.32
2023-03-26T20:26:45.803Z,15.85
2023-03-26T20:29:14.902Z,15.38
2023-03-26T20:31:43.790Z,15.68
2023-03-26T20:34:16.680Z,14.98
2023-03-26T20:36:45.832Z,14.63
2023-03-26T20:39:14.349Z,13.65
2023-03-26T20:41:46.244Z,11.60
2023-03-26T20:44:18.541Z,12.47
2023-03-26T20:46:48.294Z,12.03
2023-03-26T20:49:17.163Z,12.03
2023-03-26T20:51:46.218Z,11.80
2023-03-26T20:54:21.687Z,11.95
2023-03-26T20:56:50.203Z,11.35
2023-03-26T20:59:25.689Z,11.95
2023-03-26T21:04:22.341Z,21.80
2023-03-26T21:06:51.880Z,25.50
2023-03-26T21:09:24.676Z,25.12
2023-03-26T21:12:00.844Z,24.40
2023-03-26T21:14:41.949Z,21.77
2023-03-26T21:17:16.845Z,17.65
2023-03-26T21:19:45.666Z,12.98
2023-03-26T21:22:39.923Z,10.65
2023-03-26T21:25:34.537Z,9.68
2023-03-26T21:28:35.764Z,9.75
2023-03-26T21:30:58.833Z,9.28
2023-03-26T21:33:27.968Z,9.05
2023-03-26T21:35:56.747Z,7.58
2023-03-26T21:38:25.520Z,7.72
2023-03-26T21:40:58.840Z,7.95
2023-03-26T21:43:25.689Z,8.00
2023-03-26T21:45:54.580Z,7.72
2023-03-26T21:48:23.307Z,6.83
2023-03-26T21:50:51.593Z,7.00
2023-03-26T21:53:21.561Z,7.65
2023-03-26T21:55:55.416Z,9.03
2023-03-26T21:58:52.679Z,8.58
2023-03-26T22:01:31.771Z,9.00
2023-03-26T22:04:11.156Z,7.95
2023-03-26T22:06:47.486Z,7.00
2023-03-26T22:09:18.516Z,6.58
2023-03-26T22:11:45.821Z,6.80
2023-03-26T22:14:13.872Z,7.00
2023-03-26T22:16:41.658Z,7.33
2023-03-26T22:19:10.332Z,7.70
2023-03-26T22:21:38.351Z,7.05
2023-03-26T22:24:07.022Z,6.40
2023-03-26T22:26:37.084Z,6.90
2023-03-26T22:29:07.091Z,7.53
2023-03-26T22:31:40.256Z,5.92
2023-03-26T22:34:08.670Z,6.10
2023-03-26T22:36:38.387Z,6.03
2023-03-26T22:39:06.577Z,6.45
2023-03-26T22:41:34.320Z,6.40
2023-03-26T22:44:18.557Z,5.75
2023-03-26T22:46:32.322Z,6.00
2023-03-26T22:48:59.994Z,5.70
2023-03-26T22:51:29.204Z,6.22
2023-03-26T22:53:57.367Z,6.20
2023-03-26T22:56:25.199Z,7.92
2023-03-26T22:58:53.016Z,10.93
2023-03-26T23:01:24.368Z,19.62
2023-03-26T23:03:52.164Z,28.25
2023-03-26T23:06:20.970Z,33.08
2023-03-26T23:08:49.208Z,22.02
2023-03-26T23:11:20.969Z,17.50
2023-03-26T23:13:49.452Z,10.13
2023-03-26T23:16:17.782Z,7.33
2023-03-26T23:18:46.147Z,4.90
2023-03-26T23:21:17.779Z,4.62
2023-03-26T23:23:46.400Z,3.40
2023-03-26T23:26:15.113Z,3.33
2023-03-26T23:28:43.081Z,3.30
2023-03-26T23:31:12.628Z,3.20
2023-03-26T23:33:43.763Z,3.27
2023-03-26T23:36:16.680Z,3.52
2023-03-26T23:38:49.229Z,3.45
2023-03-26T23:41:21.128Z,3.67
2023-03-26T23:43:54.696Z,3.45
2023-03-26T23:46:23.434Z,3.33
2023-03-26T23:48:52.163Z,3.40
2023-03-26T23:51:21.137Z,3.77
2023-03-26T23:53:49.056Z,10.60
2023-03-26T23:56:17.552Z,20.10
2023-03-26T23:58:45.301Z,19.17
